ARN502 CYHZ-KBOS
Flight info
| Callsign | ARN502 |
|---|---|
| Flight time | 1h 17m |
| Altitude | 34000 |
| Route | ACADN N124A TUSKY Q475 CANAL DCT EURRO OOSHN5 |
| Aircraft | RJ1H/M-WX/S |
Departure
| Time | 2026-05-07 23:30 |
|---|---|
| Airport | Halifax / Stanfield International Airport (CYHZ) |
Arrival
| Time | 2026-05-08 00:47 |
|---|---|
| Airport | Boston Logan International Airport (KBOS) |
| Time | Latitude | Longitude | Altitude | Speed | Heading |
|---|---|---|---|---|---|
| 2026-05-07 23:21 | 44.88413 | -63.51337 | 451 ft | 0 kts | 11° |
| 2026-05-07 23:25 | 44.88417 | -63.51329 | 451 ft | 4 kts | 81° |
| 2026-05-07 23:25 | 44.88417 | -63.51250 | 451 ft | 10 kts | 91° |
| 2026-05-07 23:25 | 44.88399 | -63.51177 | 451 ft | 7 kts | 126° |
| 2026-05-07 23:25 | 44.88376 | -63.51132 | 451 ft | 5 kts | 126° |
| 2026-05-07 23:26 | 44.88369 | -63.51119 | 451 ft | 0 kts | 125° |
| 2026-05-07 23:28 | 44.88346 | -63.51072 | 450 ft | 11 kts | 125° |
| 2026-05-07 23:28 | 44.88289 | -63.51030 | 449 ft | 8 kts | 195° |
| 2026-05-07 23:29 | 44.88262 | -63.51049 | 449 ft | 14 kts | 210° |
| 2026-05-07 23:29 | 44.87961 | -63.51346 | 450 ft | 89 kts | 215° |
| 2026-05-07 23:29 | 44.87278 | -63.52029 | 469 ft | 146 kts | 220° |
| 2026-05-07 23:29 | 44.86417 | -63.52932 | 836 ft | 164 kts | 218° |
| 2026-05-07 23:30 | 44.85398 | -63.53978 | 1124 ft | 198 kts | 217° |
| 2026-05-07 23:30 | 44.84221 | -63.55168 | 1817 ft | 215 kts | 219° |
| 2026-05-07 23:30 | 44.83218 | -63.56551 | 3206 ft | 191 kts | 248° |
| 2026-05-07 23:30 | 44.82857 | -63.58264 | 4516 ft | 176 kts | 251° |
| 2026-05-07 23:31 | 44.82382 | -63.59802 | 5623 ft | 169 kts | 243° |
| 2026-05-07 23:31 | 44.81867 | -63.61273 | 6517 ft | 172 kts | 242° |
| 2026-05-07 23:31 | 44.81309 | -63.62845 | 7115 ft | 188 kts | 242° |
| 2026-05-07 23:31 | 44.80695 | -63.64559 | 7714 ft | 205 kts | 242° |
| 2026-05-07 23:32 | 44.80024 | -63.66421 | 8333 ft | 221 kts | 242° |
| 2026-05-07 23:32 | 44.79311 | -63.68406 | 9037 ft | 234 kts | 242° |
| 2026-05-07 23:32 | 44.78564 | -63.70501 | 9745 ft | 244 kts | 242° |
| 2026-05-07 23:32 | 44.77809 | -63.72652 | 10620 ft | 245 kts | 242° |
| 2026-05-07 23:33 | 44.77061 | -63.74802 | 11493 ft | 245 kts | 243° |
| 2026-05-07 23:33 | 44.76314 | -63.76958 | 12332 ft | 246 kts | 243° |
| 2026-05-07 23:33 | 44.75560 | -63.79116 | 13141 ft | 246 kts | 242° |
| 2026-05-07 23:33 | 44.74801 | -63.81282 | 13885 ft | 246 kts | 242° |
| 2026-05-07 23:34 | 44.74046 | -63.83419 | 14515 ft | 248 kts | 242° |
| 2026-05-07 23:34 | 44.73269 | -63.85624 | 15160 ft | 249 kts | 242° |
| 2026-05-07 23:34 | 44.72479 | -63.87863 | 15417 ft | 263 kts | 242° |
| 2026-05-07 23:34 | 44.71638 | -63.90242 | 15458 ft | 279 kts | 242° |
| 2026-05-07 23:35 | 44.70747 | -63.92747 | 15514 ft | 294 kts | 242° |
| 2026-05-07 23:35 | 44.69820 | -63.95348 | 15791 ft | 300 kts | 242° |
| 2026-05-07 23:35 | 44.68889 | -63.97980 | 16212 ft | 301 kts | 242° |
| 2026-05-07 23:35 | 44.67970 | -64.00588 | 16657 ft | 302 kts | 242° |
| 2026-05-07 23:36 | 44.67044 | -64.03243 | 17066 ft | 304 kts | 242° |
| 2026-05-07 23:36 | 44.66105 | -64.05905 | 17496 ft | 305 kts | 241° |
| 2026-05-07 23:36 | 44.65152 | -64.08575 | 17901 ft | 306 kts | 241° |
| 2026-05-07 23:36 | 44.64194 | -64.11250 | 18263 ft | 307 kts | 241° |
| 2026-05-07 23:37 | 44.63235 | -64.13932 | 18624 ft | 308 kts | 242° |
| 2026-05-07 23:37 | 44.62285 | -64.16633 | 18980 ft | 309 kts | 242° |
| 2026-05-07 23:37 | 44.61328 | -64.19341 | 19324 ft | 310 kts | 242° |
| 2026-05-07 23:37 | 44.60366 | -64.22053 | 19664 ft | 311 kts | 242° |
| 2026-05-07 23:38 | 44.59396 | -64.24771 | 20017 ft | 312 kts | 242° |
| 2026-05-07 23:38 | 44.58436 | -64.27503 | 20362 ft | 312 kts | 243° |
| 2026-05-07 23:38 | 44.57474 | -64.30238 | 20695 ft | 313 kts | 243° |
| 2026-05-07 23:38 | 44.56506 | -64.32985 | 21019 ft | 315 kts | 243° |
| 2026-05-07 23:39 | 44.55527 | -64.35739 | 21337 ft | 316 kts | 243° |
| 2026-05-07 23:39 | 44.54538 | -64.38496 | 21653 ft | 317 kts | 243° |
| 2026-05-07 23:39 | 44.53552 | -64.41262 | 21964 ft | 317 kts | 243° |
| 2026-05-07 23:39 | 44.52576 | -64.44038 | 22270 ft | 318 kts | 244° |
| 2026-05-07 23:40 | 44.51595 | -64.46823 | 22568 ft | 319 kts | 244° |
| 2026-05-07 23:40 | 44.50609 | -64.49611 | 22869 ft | 320 kts | 244° |
| 2026-05-07 23:40 | 44.49613 | -64.52407 | 23122 ft | 321 kts | 244° |
| 2026-05-07 23:40 | 44.48613 | -64.55197 | 23404 ft | 321 kts | 244° |
| 2026-05-07 23:41 | 44.47612 | -64.57991 | 23683 ft | 320 kts | 244° |
| 2026-05-07 23:41 | 44.46605 | -64.60755 | 23983 ft | 318 kts | 243° |
| 2026-05-07 23:41 | 44.45595 | -64.63508 | 24235 ft | 318 kts | 243° |
| 2026-05-07 23:41 | 44.44588 | -64.66265 | 24457 ft | 318 kts | 243° |
| 2026-05-07 23:42 | 44.43589 | -64.69015 | 24760 ft | 316 kts | 243° |
| 2026-05-07 23:42 | 44.42596 | -64.71743 | 25076 ft | 313 kts | 242° |
| 2026-05-07 23:42 | 44.41607 | -64.74439 | 25398 ft | 310 kts | 242° |
| 2026-05-07 23:42 | 44.40631 | -64.77118 | 25720 ft | 307 kts | 242° |
| 2026-05-07 23:43 | 44.39657 | -64.79761 | 26046 ft | 304 kts | 241° |
| 2026-05-07 23:43 | 44.38688 | -64.82381 | 26362 ft | 302 kts | 241° |
| 2026-05-07 23:43 | 44.37732 | -64.84974 | 26672 ft | 299 kts | 240° |
| 2026-05-07 23:43 | 44.36774 | -64.87543 | 26974 ft | 296 kts | 240° |
| 2026-05-07 23:44 | 44.35823 | -64.90083 | 27274 ft | 294 kts | 240° |
| 2026-05-07 23:44 | 44.34885 | -64.92606 | 27557 ft | 292 kts | 240° |
| 2026-05-07 23:44 | 44.33951 | -64.95127 | 27752 ft | 292 kts | 239° |
| 2026-05-07 23:44 | 44.33020 | -64.97618 | 28124 ft | 287 kts | 239° |
| 2026-05-07 23:45 | 44.32085 | -65.00072 | 28408 ft | 285 kts | 238° |
| 2026-05-07 23:45 | 44.31157 | -65.02503 | 28664 ft | 283 kts | 238° |
| 2026-05-07 23:45 | 44.30250 | -65.04886 | 28917 ft | 281 kts | 238° |
| 2026-05-07 23:45 | 44.29344 | -65.07289 | 29180 ft | 279 kts | 238° |
| 2026-05-07 23:46 | 44.28435 | -65.09669 | 29416 ft | 277 kts | 237° |
| 2026-05-07 23:46 | 44.27526 | -65.12033 | 29662 ft | 275 kts | 237° |
| 2026-05-07 23:46 | 44.26629 | -65.14381 | 29877 ft | 274 kts | 237° |
| 2026-05-07 23:46 | 44.25737 | -65.16724 | 30040 ft | 273 kts | 237° |
| 2026-05-07 23:47 | 44.24851 | -65.19060 | 30186 ft | 272 kts | 237° |
| 2026-05-07 23:47 | 44.23968 | -65.21394 | 30337 ft | 272 kts | 237° |
| 2026-05-07 23:47 | 44.23088 | -65.23727 | 30486 ft | 271 kts | 237° |
| 2026-05-07 23:47 | 44.22211 | -65.26055 | 30635 ft | 271 kts | 237° |
| 2026-05-07 23:48 | 44.21336 | -65.28383 | 30685 ft | 273 kts | 237° |
| 2026-05-07 23:48 | 44.20460 | -65.30743 | 30755 ft | 274 kts | 237° |
| 2026-05-07 23:48 | 44.19587 | -65.33107 | 30894 ft | 274 kts | 237° |
| 2026-05-07 23:48 | 44.18717 | -65.35472 | 31036 ft | 274 kts | 237° |
| 2026-05-07 23:49 | 44.17850 | -65.37831 | 31177 ft | 273 kts | 237° |
| 2026-05-07 23:49 | 44.16980 | -65.40180 | 31311 ft | 273 kts | 237° |
| 2026-05-07 23:49 | 44.16108 | -65.42523 | 31453 ft | 272 kts | 237° |
| 2026-05-07 23:49 | 44.15236 | -65.44859 | 31600 ft | 272 kts | 237° |
| 2026-05-07 23:50 | 44.14364 | -65.47190 | 31727 ft | 271 kts | 237° |
| 2026-05-07 23:50 | 44.13492 | -65.49515 | 31855 ft | 271 kts | 237° |
| 2026-05-07 23:50 | 44.12622 | -65.51836 | 31988 ft | 270 kts | 237° |
| 2026-05-07 23:50 | 44.11752 | -65.54153 | 32122 ft | 270 kts | 237° |
| 2026-05-07 23:51 | 44.10883 | -65.56464 | 32244 ft | 269 kts | 237° |
| 2026-05-07 23:51 | 44.10017 | -65.58761 | 32531 ft | 266 kts | 236° |
| 2026-05-07 23:51 | 44.09151 | -65.61027 | 32678 ft | 265 kts | 236° |
| 2026-05-07 23:51 | 44.08287 | -65.63288 | 32793 ft | 264 kts | 236° |
| 2026-05-07 23:52 | 44.07427 | -65.65546 | 32895 ft | 264 kts | 236° |
| 2026-05-07 23:52 | 44.06565 | -65.67806 | 33010 ft | 264 kts | 236° |
| 2026-05-07 23:52 | 44.05708 | -65.70064 | 33112 ft | 264 kts | 236° |
| 2026-05-07 23:52 | 44.04852 | -65.72320 | 33210 ft | 264 kts | 236° |
| 2026-05-07 23:53 | 44.03997 | -65.74574 | 33309 ft | 264 kts | 236° |
| 2026-05-07 23:53 | 44.03140 | -65.76823 | 33404 ft | 264 kts | 236° |
| 2026-05-07 23:53 | 44.02282 | -65.79088 | 33400 ft | 266 kts | 236° |
| 2026-05-07 23:53 | 44.01423 | -65.81377 | 33417 ft | 268 kts | 236° |
| 2026-05-07 23:54 | 44.00560 | -65.83685 | 33425 ft | 270 kts | 236° |
| 2026-05-07 23:54 | 43.99691 | -65.86016 | 33438 ft | 272 kts | 236° |
| 2026-05-07 23:54 | 43.98818 | -65.88359 | 33443 ft | 274 kts | 236° |
| 2026-05-07 23:54 | 43.97940 | -65.90713 | 33494 ft | 275 kts | 236° |
| 2026-05-07 23:55 | 43.97057 | -65.93070 | 33571 ft | 275 kts | 236° |
| 2026-05-07 23:55 | 43.96179 | -65.95391 | 33560 ft | 276 kts | 236° |
| 2026-05-07 23:55 | 43.95271 | -65.97782 | 33580 ft | 277 kts | 236° |
| 2026-05-07 23:55 | 43.94373 | -66.00156 | 33641 ft | 278 kts | 236° |
| 2026-05-07 23:56 | 43.93484 | -66.02505 | 33708 ft | 271 kts | 236° |
| 2026-05-07 23:56 | 43.92607 | -66.04808 | 33734 ft | 269 kts | 235° |
| 2026-05-07 23:56 | 43.91733 | -66.07096 | 33736 ft | 269 kts | 235° |
| 2026-05-07 23:56 | 43.90867 | -66.09356 | 33735 ft | 269 kts | 235° |
| 2026-05-07 23:57 | 43.89989 | -66.11644 | 33739 ft | 269 kts | 235° |
| 2026-05-07 23:57 | 43.89108 | -66.13939 | 33745 ft | 270 kts | 235° |
| 2026-05-07 23:57 | 43.88211 | -66.16272 | 33745 ft | 271 kts | 235° |
| 2026-05-07 23:57 | 43.87325 | -66.18578 | 33824 ft | 272 kts | 236° |
| 2026-05-07 23:58 | 43.86449 | -66.20871 | 33777 ft | 274 kts | 236° |
| 2026-05-07 23:58 | 43.85569 | -66.23213 | 33757 ft | 275 kts | 236° |
| 2026-05-07 23:58 | 43.84682 | -66.25558 | 33746 ft | 275 kts | 236° |
| 2026-05-07 23:58 | 43.83791 | -66.27897 | 33712 ft | 274 kts | 235° |
| 2026-05-07 23:59 | 43.82901 | -66.30237 | 33729 ft | 275 kts | 235° |
| 2026-05-07 23:59 | 43.82010 | -66.32579 | 33740 ft | 275 kts | 235° |
| 2026-05-07 23:59 | 43.81115 | -66.34929 | 33746 ft | 276 kts | 235° |
| 2026-05-07 23:59 | 43.80218 | -66.37285 | 33746 ft | 277 kts | 235° |
| 2026-05-08 00:00 | 43.79318 | -66.39645 | 33745 ft | 278 kts | 235° |
| 2026-05-08 00:00 | 43.78416 | -66.42012 | 33750 ft | 278 kts | 235° |
| 2026-05-08 00:00 | 43.77509 | -66.44377 | 33753 ft | 279 kts | 235° |
| 2026-05-08 00:00 | 43.76599 | -66.46748 | 33753 ft | 279 kts | 235° |
| 2026-05-08 00:01 | 43.75687 | -66.49116 | 33759 ft | 279 kts | 235° |
| 2026-05-08 00:01 | 43.74773 | -66.51487 | 33762 ft | 279 kts | 235° |
| 2026-05-08 00:01 | 43.73855 | -66.53851 | 33766 ft | 279 kts | 235° |
| 2026-05-08 00:01 | 43.72939 | -66.56215 | 33765 ft | 279 kts | 235° |
| 2026-05-08 00:02 | 43.72332 | -66.57783 | 33770 ft | 279 kts | 235° |
| 2026-05-08 00:02 | 43.71415 | -66.60151 | 33767 ft | 279 kts | 235° |
| 2026-05-08 00:02 | 43.70498 | -66.62517 | 33745 ft | 280 kts | 235° |
| 2026-05-08 00:02 | 43.69572 | -66.64884 | 33757 ft | 280 kts | 234° |
| 2026-05-08 00:03 | 43.68645 | -66.67262 | 33763 ft | 281 kts | 235° |
| 2026-05-08 00:03 | 43.67719 | -66.69649 | 33765 ft | 283 kts | 235° |
| 2026-05-08 00:03 | 43.66791 | -66.72045 | 33765 ft | 283 kts | 235° |
| 2026-05-08 00:03 | 43.65861 | -66.74444 | 33768 ft | 284 kts | 235° |
| 2026-05-08 00:04 | 43.64927 | -66.76847 | 33770 ft | 284 kts | 235° |
| 2026-05-08 00:04 | 43.63992 | -66.79247 | 33837 ft | 284 kts | 236° |
| 2026-05-08 00:04 | 43.63058 | -66.81661 | 33796 ft | 286 kts | 236° |
| 2026-05-08 00:04 | 43.62135 | -66.84092 | 33783 ft | 286 kts | 236° |
| 2026-05-08 00:05 | 43.61207 | -66.86519 | 33777 ft | 286 kts | 236° |
| 2026-05-08 00:05 | 43.60271 | -66.88935 | 33779 ft | 286 kts | 236° |
| 2026-05-08 00:05 | 43.59328 | -66.91350 | 33776 ft | 285 kts | 236° |
| 2026-05-08 00:05 | 43.58385 | -66.93755 | 33742 ft | 285 kts | 236° |
| 2026-05-08 00:06 | 43.57445 | -66.96164 | 33756 ft | 285 kts | 236° |
| 2026-05-08 00:06 | 43.56505 | -66.98574 | 33765 ft | 286 kts | 236° |
| 2026-05-08 00:06 | 43.55705 | -67.01115 | 33777 ft | 291 kts | 242° |
| 2026-05-08 00:06 | 43.54980 | -67.03720 | 33774 ft | 291 kts | 240° |
| 2026-05-08 00:07 | 43.54224 | -67.06310 | 33783 ft | 292 kts | 240° |
| 2026-05-08 00:07 | 43.53473 | -67.08912 | 33775 ft | 293 kts | 240° |
| 2026-05-08 00:07 | 43.52726 | -67.11520 | 33782 ft | 293 kts | 240° |
| 2026-05-08 00:07 | 43.51981 | -67.14135 | 33781 ft | 293 kts | 240° |
| 2026-05-08 00:08 | 43.51236 | -67.16750 | 33783 ft | 293 kts | 240° |
| 2026-05-08 00:08 | 43.50492 | -67.19367 | 33779 ft | 293 kts | 240° |
| 2026-05-08 00:08 | 43.49750 | -67.21981 | 33786 ft | 293 kts | 240° |
| 2026-05-08 00:08 | 43.49008 | -67.24597 | 33780 ft | 293 kts | 240° |
| 2026-05-08 00:09 | 43.48267 | -67.27208 | 33784 ft | 293 kts | 240° |
| 2026-05-08 00:09 | 43.47526 | -67.29821 | 33779 ft | 293 kts | 240° |
| 2026-05-08 00:09 | 43.46786 | -67.32436 | 33778 ft | 293 kts | 241° |
| 2026-05-08 00:09 | 43.46053 | -67.35059 | 33780 ft | 294 kts | 241° |
| 2026-05-08 00:10 | 43.45326 | -67.37688 | 33783 ft | 294 kts | 241° |
| 2026-05-08 00:10 | 43.44586 | -67.40315 | 33782 ft | 294 kts | 241° |
| 2026-05-08 00:10 | 43.43841 | -67.42944 | 33779 ft | 295 kts | 241° |
| 2026-05-08 00:10 | 43.43095 | -67.45571 | 33787 ft | 295 kts | 241° |
| 2026-05-08 00:11 | 43.42348 | -67.48199 | 33790 ft | 295 kts | 241° |
| 2026-05-08 00:11 | 43.41599 | -67.50826 | 33790 ft | 295 kts | 240° |
| 2026-05-08 00:11 | 43.40850 | -67.53452 | 33790 ft | 295 kts | 241° |
| 2026-05-08 00:11 | 43.40099 | -67.56079 | 33785 ft | 295 kts | 240° |
| 2026-05-08 00:12 | 43.39349 | -67.58705 | 33789 ft | 295 kts | 240° |
| 2026-05-08 00:12 | 43.38597 | -67.61331 | 33787 ft | 295 kts | 241° |
| 2026-05-08 00:12 | 43.37847 | -67.63955 | 33789 ft | 295 kts | 240° |
| 2026-05-08 00:12 | 43.37097 | -67.66579 | 33791 ft | 295 kts | 241° |
| 2026-05-08 00:13 | 43.36346 | -67.69206 | 33795 ft | 295 kts | 241° |
| 2026-05-08 00:13 | 43.35596 | -67.71827 | 33768 ft | 295 kts | 240° |
| 2026-05-08 00:13 | 43.34850 | -67.74459 | 33780 ft | 296 kts | 241° |
| 2026-05-08 00:13 | 43.34102 | -67.77088 | 33792 ft | 296 kts | 241° |
| 2026-05-08 00:14 | 43.33347 | -67.79724 | 33793 ft | 297 kts | 241° |
| 2026-05-08 00:14 | 43.32588 | -67.82362 | 33815 ft | 297 kts | 241° |
| 2026-05-08 00:14 | 43.31830 | -67.85007 | 33836 ft | 299 kts | 242° |
| 2026-05-08 00:14 | 43.31074 | -67.87664 | 33816 ft | 299 kts | 242° |
| 2026-05-08 00:15 | 43.30322 | -67.90329 | 33799 ft | 299 kts | 242° |
| 2026-05-08 00:15 | 43.29573 | -67.92988 | 33795 ft | 299 kts | 242° |
| 2026-05-08 00:15 | 43.28821 | -67.95641 | 33798 ft | 298 kts | 242° |
| 2026-05-08 00:15 | 43.28058 | -67.98279 | 33797 ft | 297 kts | 241° |
| 2026-05-08 00:16 | 43.27290 | -68.00914 | 33797 ft | 297 kts | 241° |
| 2026-05-08 00:16 | 43.26525 | -68.03546 | 33795 ft | 297 kts | 241° |
| 2026-05-08 00:16 | 43.25758 | -68.06176 | 33795 ft | 297 kts | 241° |
| 2026-05-08 00:16 | 43.24989 | -68.08807 | 33795 ft | 297 kts | 241° |
| 2026-05-08 00:17 | 43.24230 | -68.11403 | 33778 ft | 297 kts | 241° |
| 2026-05-08 00:17 | 43.23458 | -68.14073 | 33788 ft | 298 kts | 242° |
| 2026-05-08 00:17 | 43.22701 | -68.16715 | 33794 ft | 298 kts | 242° |
| 2026-05-08 00:17 | 43.21937 | -68.19360 | 33796 ft | 298 kts | 241° |
| 2026-05-08 00:18 | 43.21165 | -68.22004 | 33798 ft | 299 kts | 241° |
| 2026-05-08 00:18 | 43.20391 | -68.24646 | 33794 ft | 299 kts | 241° |
| 2026-05-08 00:18 | 43.19616 | -68.27288 | 33800 ft | 299 kts | 241° |
| 2026-05-08 00:18 | 43.18837 | -68.29938 | 33800 ft | 299 kts | 241° |
| 2026-05-08 00:19 | 43.18070 | -68.32542 | 33802 ft | 299 kts | 241° |
| 2026-05-08 00:19 | 43.17291 | -68.35187 | 33866 ft | 300 kts | 242° |
| 2026-05-08 00:19 | 43.15732 | -68.40510 | 33813 ft | 301 kts | 242° |
| 2026-05-08 00:20 | 43.14166 | -68.45838 | 33806 ft | 302 kts | 242° |
| 2026-05-08 00:20 | 43.12597 | -68.51164 | 33779 ft | 301 kts | 242° |
| 2026-05-08 00:21 | 43.11030 | -68.56480 | 33800 ft | 301 kts | 242° |
| 2026-05-08 00:21 | 43.09446 | -68.61805 | 33727 ft | 304 kts | 242° |
| 2026-05-08 00:22 | 43.08648 | -68.64500 | 33545 ft | 307 kts | 242° |
| 2026-05-08 00:22 | 43.07840 | -68.67222 | 33211 ft | 311 kts | 242° |
| 2026-05-08 00:22 | 43.07031 | -68.69957 | 32763 ft | 308 kts | 242° |
| 2026-05-08 00:22 | 43.06237 | -68.72651 | 32318 ft | 304 kts | 242° |
| 2026-05-08 00:23 | 43.05451 | -68.75329 | 31892 ft | 304 kts | 242° |
| 2026-05-08 00:23 | 43.04652 | -68.78020 | 31476 ft | 305 kts | 242° |
| 2026-05-08 00:23 | 43.03844 | -68.80700 | 31052 ft | 305 kts | 242° |
| 2026-05-08 00:23 | 43.03032 | -68.83386 | 30643 ft | 306 kts | 241° |
| 2026-05-08 00:24 | 43.02212 | -68.86079 | 30301 ft | 310 kts | 242° |
| 2026-05-08 00:24 | 43.01387 | -68.88833 | 29904 ft | 315 kts | 243° |
| 2026-05-08 00:24 | 43.00575 | -68.91610 | 29398 ft | 315 kts | 243° |
| 2026-05-08 00:24 | 42.99772 | -68.94392 | 28917 ft | 315 kts | 243° |
| 2026-05-08 00:25 | 42.98960 | -68.97181 | 28445 ft | 318 kts | 243° |
| 2026-05-08 00:25 | 42.98128 | -69.00000 | 27971 ft | 321 kts | 243° |
| 2026-05-08 00:25 | 42.97284 | -69.02823 | 27499 ft | 322 kts | 243° |
| 2026-05-08 00:25 | 42.96431 | -69.05687 | 27040 ft | 331 kts | 244° |
| 2026-05-08 00:26 | 42.95550 | -69.08648 | 26550 ft | 343 kts | 244° |
| 2026-05-08 00:26 | 42.94641 | -69.11687 | 26084 ft | 347 kts | 245° |
| 2026-05-08 00:26 | 42.93741 | -69.14757 | 25616 ft | 349 kts | 245° |
| 2026-05-08 00:26 | 42.92838 | -69.17830 | 25161 ft | 350 kts | 245° |
| 2026-05-08 00:27 | 42.91917 | -69.20934 | 24755 ft | 355 kts | 245° |
| 2026-05-08 00:27 | 42.90990 | -69.24018 | 23968 ft | 351 kts | 246° |
| 2026-05-08 00:27 | 42.90072 | -69.27067 | 23418 ft | 343 kts | 246° |
| 2026-05-08 00:27 | 42.89167 | -69.30055 | 22929 ft | 338 kts | 246° |
| 2026-05-08 00:28 | 42.88274 | -69.33002 | 22442 ft | 335 kts | 246° |
| 2026-05-08 00:28 | 42.87397 | -69.35895 | 21973 ft | 334 kts | 246° |
| 2026-05-08 00:28 | 42.86513 | -69.38807 | 21494 ft | 331 kts | 246° |
| 2026-05-08 00:28 | 42.85637 | -69.41697 | 21027 ft | 329 kts | 246° |
| 2026-05-08 00:29 | 42.84756 | -69.44557 | 20576 ft | 326 kts | 246° |
| 2026-05-08 00:29 | 42.83883 | -69.47402 | 20125 ft | 325 kts | 246° |
| 2026-05-08 00:29 | 42.83008 | -69.50231 | 19682 ft | 323 kts | 246° |
| 2026-05-08 00:29 | 42.82142 | -69.53038 | 19272 ft | 320 kts | 245° |
| 2026-05-08 00:30 | 42.81274 | -69.55824 | 18845 ft | 318 kts | 245° |
| 2026-05-08 00:30 | 42.80418 | -69.58593 | 18411 ft | 316 kts | 246° |
| 2026-05-08 00:30 | 42.79560 | -69.61339 | 17973 ft | 315 kts | 245° |
| 2026-05-08 00:30 | 42.78713 | -69.64080 | 17488 ft | 314 kts | 246° |
| 2026-05-08 00:31 | 42.77869 | -69.66823 | 17012 ft | 314 kts | 246° |
| 2026-05-08 00:31 | 42.77017 | -69.69564 | 16512 ft | 315 kts | 246° |
| 2026-05-08 00:31 | 42.76170 | -69.72314 | 16047 ft | 315 kts | 247° |
| 2026-05-08 00:31 | 42.75328 | -69.75061 | 15591 ft | 315 kts | 247° |
| 2026-05-08 00:32 | 42.74481 | -69.77805 | 15141 ft | 314 kts | 248° |
| 2026-05-08 00:32 | 42.73628 | -69.80541 | 14698 ft | 314 kts | 248° |
| 2026-05-08 00:32 | 42.72781 | -69.83280 | 14295 ft | 314 kts | 248° |
| 2026-05-08 00:32 | 42.71939 | -69.86020 | 13959 ft | 315 kts | 248° |
| 2026-05-08 00:33 | 42.71088 | -69.88766 | 13644 ft | 315 kts | 249° |
| 2026-05-08 00:33 | 42.70228 | -69.91509 | 13273 ft | 315 kts | 248° |
| 2026-05-08 00:33 | 42.69371 | -69.94242 | 12899 ft | 314 kts | 248° |
| 2026-05-08 00:33 | 42.68507 | -69.96980 | 12529 ft | 315 kts | 248° |
| 2026-05-08 00:34 | 42.67643 | -69.99714 | 12170 ft | 315 kts | 248° |
| 2026-05-08 00:34 | 42.66780 | -70.02451 | 11809 ft | 315 kts | 249° |
| 2026-05-08 00:34 | 42.65964 | -70.05215 | 11459 ft | 315 kts | 251° |
| 2026-05-08 00:34 | 42.65193 | -70.07996 | 11106 ft | 314 kts | 251° |
| 2026-05-08 00:35 | 42.64387 | -70.10753 | 10781 ft | 315 kts | 248° |
| 2026-05-08 00:35 | 42.63796 | -70.12553 | 10568 ft | 316 kts | 247° |
| 2026-05-08 00:35 | 42.62987 | -70.14936 | 10284 ft | 315 kts | 247° |
| 2026-05-08 00:35 | 42.62057 | -70.17635 | 9968 ft | 316 kts | 246° |
| 2026-05-08 00:36 | 42.61115 | -70.20337 | 9656 ft | 317 kts | 246° |
| 2026-05-08 00:36 | 42.60037 | -70.22950 | 9296 ft | 320 kts | 233° |
| 2026-05-08 00:36 | 42.58233 | -70.24731 | 8986 ft | 327 kts | 206° |
| 2026-05-08 00:36 | 42.56078 | -70.25773 | 8676 ft | 329 kts | 202° |
| 2026-05-08 00:37 | 42.53924 | -70.26791 | 8369 ft | 327 kts | 203° |
| 2026-05-08 00:37 | 42.51783 | -70.27807 | 8061 ft | 326 kts | 202° |
| 2026-05-08 00:37 | 42.49684 | -70.28839 | 7747 ft | 323 kts | 206° |
| 2026-05-08 00:38 | 42.46955 | -70.33103 | 7180 ft | 297 kts | 257° |
| 2026-05-08 00:38 | 42.46572 | -70.35780 | 6899 ft | 283 kts | 259° |
| 2026-05-08 00:38 | 42.46202 | -70.38351 | 6613 ft | 274 kts | 259° |
| 2026-05-08 00:38 | 42.45852 | -70.40844 | 6329 ft | 266 kts | 259° |
| 2026-05-08 00:39 | 42.45511 | -70.43272 | 6139 ft | 259 kts | 259° |
| 2026-05-08 00:39 | 42.45159 | -70.45646 | 6026 ft | 256 kts | 259° |
| 2026-05-08 00:39 | 42.44796 | -70.48009 | 5988 ft | 256 kts | 258° |
| 2026-05-08 00:39 | 42.44411 | -70.50365 | 5987 ft | 257 kts | 258° |
| 2026-05-08 00:40 | 42.44020 | -70.52716 | 5832 ft | 255 kts | 258° |
| 2026-05-08 00:40 | 42.43618 | -70.55066 | 5402 ft | 256 kts | 258° |
| 2026-05-08 00:40 | 42.43196 | -70.57401 | 5026 ft | 254 kts | 258° |
| 2026-05-08 00:40 | 42.42772 | -70.59785 | 4879 ft | 261 kts | 259° |
| 2026-05-08 00:41 | 42.42433 | -70.62149 | 4646 ft | 253 kts | 261° |
| 2026-05-08 00:41 | 42.42091 | -70.64473 | 4255 ft | 251 kts | 260° |
| 2026-05-08 00:41 | 42.41721 | -70.66775 | 3882 ft | 250 kts | 259° |
| 2026-05-08 00:41 | 42.41325 | -70.69069 | 3538 ft | 250 kts | 258° |
| 2026-05-08 00:42 | 42.40912 | -70.71337 | 3504 ft | 249 kts | 258° |
| 2026-05-08 00:42 | 42.40497 | -70.73618 | 3500 ft | 250 kts | 258° |
| 2026-05-08 00:42 | 42.40077 | -70.75895 | 3495 ft | 249 kts | 258° |
| 2026-05-08 00:42 | 42.39660 | -70.78184 | 3103 ft | 245 kts | 258° |
| 2026-05-08 00:43 | 42.39289 | -70.80268 | 2798 ft | 216 kts | 259° |
| 2026-05-08 00:43 | 42.38949 | -70.82205 | 2479 ft | 209 kts | 259° |
| 2026-05-08 00:43 | 42.38627 | -70.84037 | 2227 ft | 186 kts | 259° |
| 2026-05-08 00:43 | 42.38349 | -70.85597 | 2011 ft | 156 kts | 261° |
| 2026-05-08 00:44 | 42.38105 | -70.86959 | 1810 ft | 145 kts | 261° |
| 2026-05-08 00:44 | 42.37877 | -70.88285 | 1605 ft | 145 kts | 261° |
| 2026-05-08 00:44 | 42.37648 | -70.89636 | 1402 ft | 147 kts | 261° |
| 2026-05-08 00:44 | 42.37412 | -70.90995 | 1201 ft | 150 kts | 260° |
| 2026-05-08 00:45 | 42.37179 | -70.92294 | 1006 ft | 133 kts | 260° |
| 2026-05-08 00:45 | 42.36973 | -70.93441 | 841 ft | 124 kts | 258° |
| 2026-05-08 00:45 | 42.36746 | -70.94567 | 671 ft | 122 kts | 260° |
| 2026-05-08 00:45 | 42.36568 | -70.95655 | 511 ft | 117 kts | 259° |
| 2026-05-08 00:46 | 42.36442 | -70.96360 | 395 ft | 115 kts | 259° |
| 2026-05-08 00:46 | 42.36261 | -70.97396 | 267 ft | 110 kts | 260° |
| 2026-05-08 00:46 | 42.36090 | -70.98377 | 105 ft | 105 kts | 260° |
| 2026-05-08 00:46 | 42.35928 | -70.99310 | 26 ft | 94 kts | 256° |
| 2026-05-08 00:47 | 42.35793 | -71.00071 | 25 ft | 66 kts | 256° |
| 2026-05-08 00:47 | 42.35758 | -71.00464 | 25 ft | 30 kts | 281° |
| 2026-05-08 00:47 | 42.35784 | -71.00680 | 25 ft | 12 kts | 278° |
| 2026-05-08 00:47 | 42.35787 | -71.00711 | 25 ft | 0 kts | 277° |
| 2026-05-08 00:48 | 42.35789 | -71.00722 | 25 ft | 6 kts | 277° |
| 2026-05-08 00:49 | 42.35800 | -71.00835 | 25 ft | 15 kts | 277° |
| 2026-05-08 00:49 | 42.35813 | -71.00945 | 25 ft | 0 kts | 278° |
| 2026-05-08 00:49 | 42.35823 | -71.01033 | 25 ft | 12 kts | 278° |
| 2026-05-08 00:49 | 42.35833 | -71.01135 | 28 ft | 10 kts | 277° |
| 2026-05-08 00:50 | 42.35843 | -71.01243 | 25 ft | 14 kts | 277° |
| 2026-05-08 00:50 | 42.35868 | -71.01379 | 28 ft | 14 kts | 320° |
| 2026-05-08 00:50 | 42.35979 | -71.01347 | 25 ft | 21 kts | 22° |
| 2026-05-08 00:50 | 42.36140 | -71.01272 | 25 ft | 28 kts | 17° |
| 2026-05-08 00:51 | 42.36328 | -71.01180 | 25 ft | 28 kts | 20° |
| 2026-05-08 00:51 | 42.36491 | -71.01107 | 25 ft | 14 kts | 17° |
| 2026-05-08 00:51 | 42.36549 | -71.01161 | 25 ft | 8 kts | 295° |
| 2026-05-08 00:51 | 42.36599 | -71.01204 | 29 ft | 12 kts | 8° |
| 2026-05-08 00:52 | 42.36686 | -71.01166 | 25 ft | 16 kts | 19° |
| 2026-05-08 00:52 | 42.36795 | -71.01160 | 26 ft | 16 kts | 324° |
| 2026-05-08 00:52 | 42.36874 | -71.01260 | 27 ft | 17 kts | 315° |
| 2026-05-08 00:52 | 42.36970 | -71.01389 | 28 ft | 20 kts | 315° |
| 2026-05-08 00:53 | 42.37064 | -71.01516 | 27 ft | 18 kts | 315° |
| 2026-05-08 00:53 | 42.37136 | -71.01614 | 27 ft | 11 kts | 309° |
| 2026-05-08 00:53 | 42.37106 | -71.01721 | 25 ft | 16 kts | 213° |
| 2026-05-08 00:53 | 42.37091 | -71.01801 | 27 ft | 8 kts | 305° |
| 2026-05-08 00:54 | 42.37090 | -71.01849 | 26 ft | 5 kts | 212° |
| 2026-05-08 00:54 | 42.37070 | -71.01866 | 25 ft | 0 kts | 212° |